Time;durP1;ratioP1;P1;durP2;ratioP2;P2;SDS_P1;SDS_P2;PMS_P1;PMS_P2;Temp;Humidity;BMP_temperature;BMP_pressure;BME280_temperature;BME280_humidity;BME280_pressure;Samples;Min_cycle;Max_cycle;Signal;HPM_P1;HPM_P2
2023/05/28 00:02:09;;;;;;;3.07;2.87;;;20.90;45.40;;;;;;5026916;28;20786;-77
2023/05/28 00:04:34;;;;;;;4.43;4.13;;;20.90;45.30;;;;;;5014312;28;20235;-77
2023/05/28 00:07:00;;;;;;;3.80;3.57;;;20.90;45.30;;;;;;5041987;28;20313;-79
2023/05/28 00:09:26;;;;;;;3.33;3.13;;;20.90;45.40;;;;;;5011564;28;20346;-79
2023/05/28 00:11:51;;;;;;;3.17;2.93;;;20.90;45.40;;;;;;5007967;28;20238;-79
2023/05/28 00:14:17;;;;;;;3.40;3.20;;;20.90;45.40;;;;;;5022699;28;20916;-77
2023/05/28 00:16:44;;;;;;;3.70;3.50;;;20.90;45.40;;;;;;4999869;28;20246;-79
2023/05/28 00:19:10;;;;;;;3.50;3.30;;;20.90;45.50;;;;;;5001740;28;20239;-79
2023/05/28 00:21:36;;;;;;;3.80;3.60;;;20.90;45.50;;;;;;4993132;28;20950;-77
2023/05/28 00:24:02;;;;;;;3.30;3.10;;;20.90;45.50;;;;;;4998802;28;20620;-78
2023/05/28 00:26:29;;;;;;;4.57;3.33;;;20.90;45.50;;;;;;5005372;28;20502;-79
2023/05/28 00:28:54;;;;;;;3.50;3.30;;;20.90;45.50;;;;;;5005328;28;20483;-79
2023/05/28 00:31:20;;;;;;;3.53;3.33;;;20.90;45.50;;;;;;4998099;28;20478;-79
2023/05/28 00:33:46;;;;;;;3.97;3.37;;;20.90;45.50;;;;;;5012925;28;20230;-77
2023/05/28 00:36:14;;;;;;;3.30;3.10;;;20.90;45.50;;;;;;5000719;28;20231;-79
2023/05/28 00:38:40;;;;;;;3.93;3.73;;;20.90;45.50;;;;;;5001108;28;20266;-79
2023/05/28 00:41:06;;;;;;;3.67;3.47;;;20.90;45.50;;;;;;5036600;28;20480;-78
2023/05/28 00:43:32;;;;;;;3.83;3.20;;;20.90;45.40;;;;;;5033413;28;20473;-79
2023/05/28 00:46:03;;;;;;;3.90;3.70;;;20.90;45.50;;;;;;4989061;28;20494;-80
2023/05/28 00:48:29;;;;;;;3.57;3.37;;;20.90;45.50;;;;;;5010135;28;20697;-78
2023/05/28 00:50:55;;;;;;;3.90;3.60;;;20.90;45.50;;;;;;5000822;28;20464;-79
2023/05/28 00:53:21;;;;;;;14.87;3.53;;;20.90;45.50;;;;;;5039225;28;20592;-79
2023/05/28 00:55:48;;;;;;;3.57;3.27;;;20.90;45.50;;;;;;4996787;28;22111;-77
2023/05/28 00:58:15;;;;;;;3.53;3.33;;;20.90;45.50;;;;;;5000850;28;20983;-79
2023/05/28 01:00:43;;;;;;;3.37;3.17;;;20.90;45.50;;;;;;5006574;28;21553;-79
2023/05/28 01:03:09;;;;;;;3.60;3.40;;;20.90;45.50;;;;;;5008603;28;20472;-78
2023/05/28 01:05:35;;;;;;;3.57;3.27;;;20.90;45.50;;;;;;5019168;28;20477;-78
2023/05/28 01:08:06;;;;;;;3.07;2.87;;;20.90;45.50;;;;;;4996888;28;21113;-79
2023/05/28 01:10:33;;;;;;;3.83;3.53;;;20.90;45.50;;;;;;4997411;28;20229;-79
2023/05/28 01:13:02;;;;;;;3.23;3.03;;;20.90;45.50;;;;;;5002338;28;21345;-79
2023/05/28 01:15:27;;;;;;;3.43;3.23;;;20.90;45.50;;;;;;5005737;28;20472;-79
2023/05/28 01:17:58;;;;;;;3.77;3.57;;;20.90;45.50;;;;;;5002461;28;20851;-79
2023/05/28 01:20:27;;;;;;;3.03;2.83;;;20.90;45.50;;;;;;5008079;28;20226;-79
2023/05/28 01:22:58;;;;;;;3.40;3.20;;;20.90;45.50;;;;;;5002352;28;20833;-78
2023/05/28 01:25:24;;;;;;;3.57;3.30;;;20.90;45.50;;;;;;5005965;28;20472;-79
2023/05/28 01:27:50;;;;;;;3.17;2.97;;;20.90;45.50;;;;;;5022801;28;20479;-78
2023/05/28 01:30:16;;;;;;;3.17;2.97;;;20.90;45.50;;;;;;5001662;28;20452;-79
2023/05/28 01:32:42;;;;;;;3.50;3.30;;;20.90;45.50;;;;;;5040964;28;20329;-78
2023/05/28 01:35:09;;;;;;;3.10;2.90;;;20.90;45.50;;;;;;5008870;28;20477;-79
2023/05/28 01:37:43;;;;;;;3.00;2.80;;;20.80;45.40;;;;;;5016693;28;20764;-77
2023/05/28 01:40:11;;;;;;;3.37;3.17;;;20.90;45.50;;;;;;5005571;28;20902;-79
2023/05/28 01:42:37;;;;;;;3.17;2.97;;;20.90;45.50;;;;;;5009736;28;20531;-79
2023/05/28 01:45:05;;;;;;;3.37;3.17;;;20.90;45.50;;;;;;4994420;28;20803;-78
2023/05/28 01:47:31;;;;;;;3.47;3.27;;;20.80;45.40;;;;;;5003797;28;20598;-79
2023/05/28 01:49:56;;;;;;;3.40;3.20;;;20.80;45.40;;;;;;5002784;28;20481;-78
2023/05/28 01:52:22;;;;;;;3.20;3.00;;;20.90;45.50;;;;;;4992026;28;20709;-77
2023/05/28 01:54:48;;;;;;;2.87;2.67;;;20.80;45.40;;;;;;5010189;28;20349;-79
2023/05/28 01:57:14;;;;;;;3.30;3.10;;;20.80;45.40;;;;;;5003292;28;20235;-77
2023/05/28 01:59:40;;;;;;;3.20;3.00;;;20.80;45.40;;;;;;5000498;28;20234;-78
2023/05/28 02:02:07;;;;;;;3.67;3.47;;;20.80;45.40;;;;;;5006998;28;20460;-79
2023/05/28 02:04:33;;;;;;;3.17;2.97;;;20.80;45.40;;;;;;4999240;28;20220;-78
2023/05/28 02:06:58;;;;;;;3.20;3.00;;;20.80;45.40;;;;;;5009577;28;20456;-79
2023/05/28 02:09:24;;;;;;;3.47;3.27;;;20.80;45.30;;;;;;4992408;28;20301;-78
2023/05/28 02:11:49;;;;;;;3.30;3.10;;;20.80;45.40;;;;;;5002526;28;20310;-79
2023/05/28 02:14:15;;;;;;;3.63;3.43;;;20.80;45.40;;;;;;4989192;28;20293;-77
2023/05/28 02:16:52;;;;;;;4.03;3.73;;;20.80;45.40;;;;;;5040535;28;20716;-79
2023/05/28 02:19:18;;;;;;;3.73;3.43;;;20.80;45.40;;;;;;5010872;28;20487;-78
2023/05/28 02:21:44;;;;;;;3.13;2.93;;;20.80;45.40;;;;;;5005011;28;20438;-78
2023/05/28 02:24:10;;;;;;;3.27;3.07;;;20.80;45.40;;;;;;4997587;28;20851;-78
2023/05/28 02:26:35;;;;;;;3.17;2.97;;;20.80;45.40;;;;;;4995328;28;20228;-80
2023/05/28 02:29:01;;;;;;;3.20;3.00;;;20.80;45.40;;;;;;5032037;28;20215;-80
2023/05/28 02:31:27;;;;;;;3.43;3.23;;;20.80;45.40;;;;;;4996486;28;20211;-79
2023/05/28 02:33:52;;;;;;;3.43;3.23;;;20.80;45.40;;;;;;4998286;28;20518;-79
2023/05/28 02:36:18;;;;;;;3.20;3.00;;;20.80;45.40;;;;;;5010923;28;20298;-79
2023/05/28 02:38:43;;;;;;;2.93;2.73;;;20.80;45.40;;;;;;5006603;28;20250;-78
2023/05/28 02:41:10;;;;;;;3.27;3.07;;;20.80;45.40;;;;;;5010071;28;20226;-79
2023/05/28 02:43:35;;;;;;;3.20;3.00;;;20.80;45.40;;;;;;4996513;28;20246;-79
2023/05/28 02:46:01;;;;;;;3.57;3.37;;;20.80;45.40;;;;;;5018090;28;21099;-79
2023/05/28 02:48:27;;;;;;;3.10;2.90;;;20.80;45.40;;;;;;5006907;28;20226;-78
2023/05/28 02:50:53;;;;;;;3.33;3.13;;;20.80;45.40;;;;;;5005692;28;20464;-79
2023/05/28 02:53:20;;;;;;;3.17;2.97;;;20.80;45.40;;;;;;5012927;28;20226;-80
2023/05/28 02:55:46;;;;;;;2.90;2.80;;;20.80;45.40;;;;;;5008190;28;20223;-80
2023/05/28 02:58:12;;;;;;;3.30;3.10;;;20.80;45.40;;;;;;4995270;28;20491;-79
2023/05/28 03:00:38;;;;;;;3.60;3.40;;;20.80;45.40;;;;;;5019506;28;20227;-80
2023/05/28 03:03:04;;;;;;;3.60;3.30;;;20.80;45.40;;;;;;5030406;28;20534;-79
2023/05/28 03:05:31;;;;;;;3.40;3.10;;;20.80;45.40;;;;;;5004495;28;21786;-80
2023/05/28 03:07:59;;;;;;;3.30;3.10;;;20.80;45.40;;;;;;5002777;28;20689;-79
2023/05/28 03:10:25;;;;;;;3.00;2.80;;;20.80;45.40;;;;;;4990656;28;20972;-79
2023/05/28 03:12:50;;;;;;;3.27;3.07;;;20.80;45.40;;;;;;4993188;28;20469;-78
2023/05/28 03:15:16;;;;;;;3.03;2.83;;;20.80;45.40;;;;;;5000071;28;20226;-79
2023/05/28 03:17:42;;;;;;;3.10;2.93;;;20.80;45.40;;;;;;4995730;28;20297;-80
2023/05/28 03:20:10;;;;;;;2.77;2.63;;;20.80;45.40;;;;;;4999991;28;20251;-79
2023/05/28 03:22:36;;;;;;;2.80;2.70;;;20.80;45.40;;;;;;4993027;28;20266;-79
2023/05/28 03:25:02;;;;;;;2.90;2.80;;;20.80;45.40;;;;;;5008460;28;20496;-79
2023/05/28 03:27:28;;;;;;;3.03;2.83;;;20.80;45.40;;;;;;4995775;28;20463;-79
2023/05/28 03:29:54;;;;;;;3.03;2.93;;;20.80;45.40;;;;;;5009365;28;20541;-79
2023/05/28 03:32:19;;;;;;;3.40;3.20;;;20.80;45.40;;;;;;5002439;28;20223;-78
2023/05/28 03:34:45;;;;;;;3.10;2.90;;;20.80;45.50;;;;;;4994713;28;21581;-78
2023/05/28 03:37:10;;;;;;;3.10;2.90;;;20.80;45.40;;;;;;5006086;28;20221;-79
2023/05/28 03:39:36;;;;;;;2.93;2.73;;;20.80;45.40;;;;;;5003235;28;20987;-79
2023/05/28 03:42:01;;;;;;;3.10;2.90;;;20.80;45.40;;;;;;5013274;28;20223;-80
2023/05/28 03:44:27;;;;;;;3.27;3.07;;;20.80;45.40;;;;;;5006047;28;20227;-80
2023/05/28 03:46:53;;;;;;;3.00;2.80;;;20.80;45.40;;;;;;5006630;28;20222;-79
2023/05/28 03:49:18;;;;;;;3.17;2.97;;;20.80;45.40;;;;;;4999537;28;20773;-79
2023/05/28 03:51:44;;;;;;;2.90;2.73;;;20.80;45.40;;;;;;4997457;28;20338;-81
2023/05/28 03:54:09;;;;;;;3.70;3.47;;;20.80;45.40;;;;;;5009874;28;20250;-79
2023/05/28 03:56:35;;;;;;;3.30;3.00;;;20.80;45.40;;;;;;4999363;28;20242;-80
2023/05/28 03:59:01;;;;;;;3.10;2.90;;;20.80;45.40;;;;;;5010153;28;20231;-80
2023/05/28 04:01:26;;;;;;;2.90;2.63;;;20.80;45.40;;;;;;5017029;28;20490;-80
2023/05/28 04:03:55;;;;;;;3.40;3.20;;;20.80;45.40;;;;;;5006607;28;20230;-79
2023/05/28 04:06:20;;;;;;;3.57;3.37;;;20.80;45.40;;;;;;5005435;28;20238;-80
2023/05/28 04:08:47;;;;;;;2.70;2.50;;;20.80;45.40;;;;;;5004830;28;20483;-79
2023/05/28 04:11:12;;;;;;;3.27;3.07;;;20.80;45.40;;;;;;4996784;28;21110;-80
2023/05/28 04:13:38;;;;;;;3.20;3.00;;;20.80;45.30;;;;;;5000300;28;20456;-80
2023/05/28 04:16:03;;;;;;;3.03;2.83;;;20.80;45.40;;;;;;5004093;28;20222;-81
2023/05/28 04:18:29;;;;;;;2.97;2.80;;;20.80;45.40;;;;;;4995553;28;20222;-80
2023/05/28 04:20:55;;;;;;;2.97;2.77;;;20.80;45.40;;;;;;5000348;28;20235;-78
2023/05/28 04:23:21;;;;;;;2.70;2.57;;;20.80;45.40;;;;;;5000535;28;20280;-80
2023/05/28 04:25:47;;;;;;;3.07;2.87;;;20.80;45.40;;;;;;5014027;28;20472;-80
2023/05/28 04:28:12;;;;;;;2.90;2.70;;;20.70;45.30;;;;;;5002803;28;20321;-80
2023/05/28 04:30:38;;;;;;;2.67;2.57;;;20.80;45.40;;;;;;5007958;28;21447;-78
2023/05/28 04:33:03;;;;;;;3.73;3.53;;;20.80;45.40;;;;;;4996992;28;20248;-80
2023/05/28 04:35:29;;;;;;;3.37;3.17;;;20.80;45.50;;;;;;4999714;28;20305;-80
2023/05/28 04:37:55;;;;;;;2.80;2.70;;;20.80;45.40;;;;;;5001000;28;20695;-80
2023/05/28 04:40:21;;;;;;;2.93;2.73;;;20.80;45.40;;;;;;5010783;28;20742;-78
2023/05/28 04:42:47;;;;;;;2.43;2.33;;;20.80;45.40;;;;;;5008500;28;20845;-78
2023/05/28 04:45:13;;;;;;;3.20;3.00;;;20.80;45.40;;;;;;5022286;28;20223;-80
2023/05/28 04:47:38;;;;;;;3.17;2.97;;;20.80;45.40;;;;;;5015274;28;20546;-78
2023/05/28 04:50:06;;;;;;;3.13;2.93;;;20.80;45.40;;;;;;5010118;28;20218;-81
2023/05/28 04:52:32;;;;;;;2.80;2.60;;;20.80;45.40;;;;;;5012276;28;20742;-80
2023/05/28 04:54:58;;;;;;;2.83;2.70;;;20.80;45.40;;;;;;5007122;28;20464;-80
2023/05/28 04:57:24;;;;;;;2.93;2.73;;;20.80;45.40;;;;;;5006227;28;20499;-78
2023/05/28 04:59:49;;;;;;;2.93;2.73;;;20.80;45.40;;;;;;5009827;28;20234;-80
2023/05/28 05:02:18;;;;;;;3.60;3.40;;;20.80;45.40;;;;;;5013075;28;20222;-79
2023/05/28 05:04:45;;;;;;;2.80;2.60;;;20.80;45.40;;;;;;4999826;28;20305;-79
2023/05/28 05:07:12;;;;;;;2.67;2.50;;;20.80;45.40;;;;;;5002659;28;20455;-78
2023/05/28 05:09:37;;;;;;;2.90;2.60;;;20.80;45.40;;;;;;4992750;28;20464;-79
2023/05/28 05:12:03;;;;;;;2.63;2.53;;;20.80;45.40;;;;;;5004759;28;21445;-78
2023/05/28 05:14:29;;;;;;;2.80;2.60;;;20.80;45.40;;;;;;4994549;28;20257;-79
2023/05/28 05:16:54;;;;;;;2.83;2.63;;;20.80;45.40;;;;;;5009648;28;20302;-81
2023/05/28 05:19:20;;;;;;;2.97;2.77;;;20.80;45.40;;;;;;5009119;28;21407;-81
2023/05/28 05:21:45;;;;;;;2.90;2.70;;;20.80;45.40;;;;;;4997002;28;20678;-80
2023/05/28 05:24:11;;;;;;;2.57;2.30;;;20.80;45.50;;;;;;5004320;28;20285;-80
2023/05/28 05:26:36;;;;;;;2.93;2.77;;;20.80;45.40;;;;;;4999507;28;20235;-81
2023/05/28 05:29:02;;;;;;;3.00;2.80;;;20.80;45.40;;;;;;5001265;28;20222;-78
2023/05/28 05:31:27;;;;;;;3.10;2.90;;;20.80;45.40;;;;;;4999784;28;20281;-81
2023/05/28 05:33:53;;;;;;;3.03;2.83;;;20.80;45.40;;;;;;5008200;28;20222;-78
2023/05/28 05:36:18;;;;;;;2.40;2.30;;;20.80;45.40;;;;;;5016408;28;20222;-81
2023/05/28 05:38:45;;;;;;;3.20;3.00;;;20.80;45.40;;;;;;5007429;28;20246;-79
2023/05/28 05:41:11;;;;;;;2.60;2.50;;;20.80;45.50;;;;;;4974288;28;20239;-78
2023/05/28 05:43:37;;;;;;;2.70;2.50;;;20.80;45.40;;;;;;4998071;28;20468;-80
2023/05/28 05:46:02;;;;;;;2.60;2.50;;;20.80;45.40;;;;;;5007206;28;20226;-78
2023/05/28 05:48:28;;;;;;;2.80;2.60;;;20.80;45.40;;;;;;5005577;28;20218;-80
2023/05/28 05:50:55;;;;;;;2.33;2.20;;;20.80;45.40;;;;;;5032636;28;20331;-80
2023/05/28 05:53:21;;;;;;;2.60;2.50;;;20.80;45.40;;;;;;5004277;28;20219;-77
2023/05/28 05:55:47;;;;;;;2.53;2.33;;;20.80;45.40;;;;;;4999404;28;20457;-79
2023/05/28 05:58:14;;;;;;;2.87;2.67;;;20.80;45.40;;;;;;4995818;28;20494;-79
2023/05/28 06:00:40;;;;;;;2.83;2.70;;;20.90;45.50;;;;;;5011458;28;20698;-79
2023/05/28 06:03:06;;;;;;;2.80;2.70;;;20.90;45.50;;;;;;5009460;28;20595;-77
2023/05/28 06:05:35;;;;;;;2.90;2.70;;;20.90;45.50;;;;;;5010127;28;20994;-80
2023/05/28 06:08:02;;;;;;;2.40;2.30;;;20.90;46.20;;;;;;5009773;28;20261;-80
2023/05/28 06:10:29;;;;;;;3.27;3.07;;;20.90;45.50;;;;;;5006369;28;21081;-80
2023/05/28 06:12:55;;;;;;;4.03;2.50;;;20.90;45.50;;;;;;4997422;28;20676;-79
2023/05/28 06:15:21;;;;;;;2.67;2.57;;;20.90;45.50;;;;;;4994107;28;20982;-79
2023/05/28 06:17:47;;;;;;;2.50;2.37;;;20.90;45.50;;;;;;5004564;28;20464;-77
2023/05/28 06:20:13;;;;;;;2.50;2.40;;;20.90;45.50;;;;;;5030182;28;20514;-76
2023/05/28 06:22:39;;;;;;;2.57;2.47;;;20.90;45.50;;;;;;5003117;28;20217;-77
2023/05/28 06:25:07;;;;;;;2.30;2.10;;;20.90;45.50;;;;;;5017821;28;20460;-79
2023/05/28 06:27:33;;;;;;;2.90;2.70;;;20.90;45.50;;;;;;4991064;28;20504;-77
2023/05/28 06:29:58;;;;;;;2.93;2.73;;;20.90;45.50;;;;;;4988708;28;21472;-77
2023/05/28 06:32:24;;;;;;;2.20;2.10;;;20.90;45.50;;;;;;5005204;28;20226;-77
2023/05/28 06:34:49;;;;;;;2.30;2.20;;;20.90;45.50;;;;;;4995707;28;20740;-76
2023/05/28 06:37:15;;;;;;;2.33;2.23;;;20.90;45.50;;;;;;4994311;28;20220;-77
2023/05/28 06:39:41;;;;;;;2.60;2.40;;;20.90;45.50;;;;;;4999124;28;20611;-77
2023/05/28 06:42:06;;;;;;;2.93;2.73;;;20.90;45.40;;;;;;5005591;28;20265;-77
2023/05/28 06:44:33;;;;;;;2.93;2.60;;;20.90;45.50;;;;;;4989196;28;20234;-80
2023/05/28 06:46:58;;;;;;;2.40;2.30;;;20.90;45.50;;;;;;5003221;28;20317;-77
2023/05/28 06:49:24;;;;;;;2.30;2.20;;;20.90;45.50;;;;;;4998308;28;20490;-79
2023/05/28 06:51:50;;;;;;;2.50;2.40;;;20.90;45.50;;;;;;5006010;28;20214;-78
2023/05/28 06:54:16;;;;;;;2.60;2.47;;;20.90;45.50;;;;;;5004284;28;20228;-78
2023/05/28 06:56:42;;;;;;;2.57;2.37;;;20.90;45.50;;;;;;5006841;28;20460;-79
2023/05/28 06:59:07;;;;;;;3.20;3.00;;;20.90;45.50;;;;;;5011672;28;20643;-79
2023/05/28 07:01:33;;;;;;;2.73;2.53;;;20.90;45.50;;;;;;5000474;28;20233;-78
2023/05/28 07:03:58;;;;;;;2.73;2.63;;;20.90;45.50;;;;;;4999649;28;20225;-79
2023/05/28 07:06:24;;;;;;;2.50;2.40;;;20.90;45.50;;;;;;5004863;28;20245;-76
2023/05/28 07:08:50;;;;;;;2.50;2.40;;;20.90;45.50;;;;;;4999390;28;20231;-75
2023/05/28 07:11:16;;;;;;;2.17;2.07;;;20.90;45.50;;;;;;5001055;28;20459;-75
2023/05/28 07:13:41;;;;;;;2.83;2.63;;;20.90;45.50;;;;;;5012128;28;20270;-76
2023/05/28 07:16:07;;;;;;;2.77;2.57;;;20.90;45.50;;;;;;5006380;28;20223;-76
2023/05/28 07:18:33;;;;;;;2.90;2.60;;;20.90;45.50;;;;;;5011669;28;20674;-76
2023/05/28 07:20:59;;;;;;;2.77;2.57;;;20.90;45.50;;;;;;5009010;28;20652;-76
2023/05/28 07:23:24;;;;;;;2.80;2.60;;;20.90;45.50;;;;;;5029959;28;20302;-76
2023/05/28 07:25:50;;;;;;;2.93;2.73;;;20.90;45.50;;;;;;5011418;28;20281;-75
2023/05/28 07:28:15;;;;;;;2.40;2.30;;;20.90;45.50;;;;;;4996931;28;20313;-76
2023/05/28 07:30:42;;;;;;;3.20;3.00;;;20.90;45.50;;;;;;4996766;28;20619;-77
2023/05/28 07:33:07;;;;;;;2.40;2.30;;;20.90;45.50;;;;;;4999193;28;20445;-77
2023/05/28 07:35:33;;;;;;;3.10;2.90;;;20.90;45.50;;;;;;5002044;28;20473;-77
2023/05/28 07:38:00;;;;;;;3.10;2.90;;;20.90;45.50;;;;;;4994651;28;20684;-78
2023/05/28 07:40:26;;;;;;;3.00;2.80;;;20.90;45.50;;;;;;5000211;28;20354;-81
2023/05/28 07:42:51;;;;;;;2.60;2.43;;;20.90;45.50;;;;;;4999792;28;20540;-81
2023/05/28 07:45:17;;;;;;;3.30;3.10;;;20.90;45.50;;;;;;5011268;28;20729;-81
2023/05/28 07:47:42;;;;;;;2.83;2.43;;;20.90;45.50;;;;;;5015174;28;20757;-79
2023/05/28 07:50:09;;;;;;;2.70;2.60;;;20.90;46.20;;;;;;5012606;28;20222;-82
2023/05/28 07:52:35;;;;;;;3.13;2.93;;;20.90;45.50;;;;;;5011393;28;20306;-80
2023/05/28 07:55:03;;;;;;;3.20;3.00;;;20.90;45.50;;;;;;5018498;28;20469;-82
2023/05/28 07:57:29;;;;;;;3.50;3.30;;;21.00;45.60;;;;;;5011288;28;20480;-78
2023/05/28 07:59:55;;;;;;;3.40;3.20;;;21.00;45.60;;;;;;5005695;28;20465;-82
2023/05/28 08:02:20;;;;;;;4.30;3.90;;;21.00;45.60;;;;;;5010094;28;21156;-77
2023/05/28 08:04:46;;;;;;;3.50;3.30;;;21.00;45.60;;;;;;4988824;28;20326;-80
2023/05/28 08:07:12;;;;;;;3.87;3.57;;;21.00;45.60;;;;;;4994389;28;20827;-80
2023/05/28 08:09:40;;;;;;;3.60;3.40;;;21.00;45.60;;;;;;5016239;28;20219;-81
2023/05/28 08:12:06;;;;;;;3.47;3.20;;;21.00;45.60;;;;;;5002415;28;20453;-79
2023/05/28 08:14:32;;;;;;;3.87;3.47;;;21.00;45.60;;;;;;5008906;28;20498;-80
2023/05/28 08:16:57;;;;;;;4.07;3.67;;;21.00;45.60;;;;;;5003421;28;20230;-79
2023/05/28 08:19:23;;;;;;;3.50;3.23;;;21.00;45.60;;;;;;4994124;28;20222;-77
2023/05/28 08:21:48;;;;;;;3.10;2.90;;;20.90;45.50;;;;;;5016445;28;20235;-79
2023/05/28 08:24:14;;;;;;;3.80;3.60;;;20.90;45.50;;;;;;5007126;28;20233;-75
2023/05/28 08:26:40;;;;;;;3.57;3.27;;;20.90;45.50;;;;;;5005906;28;20977;-80
2023/05/28 08:29:06;;;;;;;3.60;3.40;;;20.90;45.50;;;;;;5001683;28;20766;-78
2023/05/28 08:31:31;;;;;;;3.67;3.37;;;20.90;45.50;;;;;;5005502;28;20223;-81
2023/05/28 08:33:58;;;;;;;4.50;3.80;;;20.90;45.40;;;;;;5010596;28;20218;-81
2023/05/28 08:36:23;;;;;;;3.50;3.30;;;20.90;45.50;;;;;;5009993;28;20305;-80
2023/05/28 08:38:49;;;;;;;3.70;3.37;;;20.90;45.50;;;;;;4999535;28;21145;-81
2023/05/28 08:41:15;;;;;;;5.10;3.57;;;20.90;45.50;;;;;;5008007;28;20226;-81
2023/05/28 08:43:41;;;;;;;3.80;3.50;;;21.00;45.60;;;;;;5003126;28;20227;-83
2023/05/28 08:46:07;;;;;;;3.63;3.43;;;21.00;45.50;;;;;;5007482;28;20556;-84
2023/05/28 08:48:34;;;;;;;2.97;2.77;;;21.00;45.60;;;;;;5003891;28;20470;-83
2023/05/28 08:51:00;;;;;;;4.10;3.33;;;21.00;45.60;;;;;;5012694;28;20223;-84
2023/05/28 08:53:31;;;;;;;3.73;3.40;;;21.00;45.60;;;;;;5041532;28;20606;-81
2023/05/28 08:55:57;;;;;;;3.20;2.90;;;21.00;45.60;;;;;;4996779;28;20471;-82
2023/05/28 08:58:22;;;;;;;3.50;3.30;;;21.00;45.60;;;;;;4997860;28;20489;-78
2023/05/28 09:00:48;;;;;;;3.43;3.23;;;21.00;45.60;;;;;;5000945;28;21219;-80
2023/05/28 09:03:14;;;;;;;3.77;3.53;;;21.00;45.60;;;;;;5006173;28;20273;-78
2023/05/28 09:05:40;;;;;;;3.33;2.90;;;21.00;45.60;;;;;;5008866;28;20222;-79
2023/05/28 09:08:07;;;;;;;3.90;3.47;;;21.00;45.60;;;;;;5012821;28;20446;-78
2023/05/28 09:10:37;;;;;;;3.60;3.40;;;21.00;45.60;;;;;;5005912;28;20210;-78
2023/05/28 09:13:04;;;;;;;3.53;3.20;;;21.00;45.60;;;;;;5013436;28;20441;-78
2023/05/28 09:15:30;;;;;;;3.40;3.20;;;21.00;45.60;;;;;;4995769;28;20481;-78
2023/05/28 09:17:59;;;;;;;3.27;3.07;;;21.00;45.60;;;;;;5007552;28;20463;-77
2023/05/28 09:20:25;;;;;;;2.63;2.43;;;21.00;45.60;;;;;;4994333;28;22058;-78
2023/05/28 09:23:00;;;;;;;3.73;3.40;;;21.00;45.60;;;;;;5000989;28;20468;-77
2023/05/28 09:25:26;;;;;;;3.00;2.80;;;21.00;45.60;;;;;;5007729;28;20218;-78
2023/05/28 09:27:53;;;;;;;2.97;2.77;;;21.00;45.60;;;;;;5000099;28;20457;-78
2023/05/28 09:30:20;;;;;;;3.20;3.00;;;21.00;45.60;;;;;;5043371;28;20483;-77
2023/05/28 09:32:45;;;;;;;3.13;2.93;;;21.00;45.60;;;;;;5006583;28;22253;-78
2023/05/28 09:35:11;;;;;;;4.47;2.73;;;21.00;45.60;;;;;;5004963;28;20463;-78
2023/05/28 09:37:36;;;;;;;3.33;3.13;;;21.00;45.60;;;;;;5004380;28;20231;-78
2023/05/28 09:40:09;;;;;;;3.27;3.00;;;21.00;45.60;;;;;;5000142;28;20223;-79
2023/05/28 09:42:42;;;;;;;2.93;2.73;;;21.00;45.50;;;;;;4999162;28;20220;-78
2023/05/28 09:45:11;;;;;;;3.00;2.50;;;21.00;45.60;;;;;;4992217;28;20468;-78
2023/05/28 09:47:44;;;;;;;2.97;2.70;;;21.00;45.50;;;;;;5035210;28;20518;-78
2023/05/28 09:50:11;;;;;;;2.90;2.70;;;21.10;45.30;;;;;;5009056;28;20499;-78
2023/05/28 09:52:39;;;;;;;2.80;2.60;;;21.00;45.20;;;;;;5007434;28;20548;-80
2023/05/28 09:55:08;;;;;;;2.70;2.50;;;21.10;45.20;;;;;;5029001;28;20654;-80
2023/05/28 09:57:37;;;;;;;2.70;2.50;;;21.10;45.30;;;;;;5010493;28;20823;-79
2023/05/28 10:00:13;;;;;;;3.30;3.10;;;21.10;45.40;;;;;;5020400;28;20576;-79
2023/05/28 10:02:43;;;;;;;2.90;2.70;;;21.10;45.40;;;;;;5026052;28;20644;-79
2023/05/28 10:05:11;;;;;;;3.03;2.83;;;21.10;45.40;;;;;;4987075;28;20508;-77
2023/05/28 10:07:40;;;;;;;2.90;2.70;;;21.00;45.30;;;;;;4999614;28;20477;-84
2023/05/28 10:10:08;;;;;;;3.10;2.80;;;21.00;45.20;;;;;;5005837;28;20475;-77
2023/05/28 10:12:34;;;;;;;2.50;2.40;;;21.10;45.40;;;;;;4989182;28;20475;-76
2023/05/28 10:15:00;;;;;;;3.30;3.00;;;21.10;45.30;;;;;;4993954;28;20962;-77
2023/05/28 10:17:26;;;;;;;2.93;2.50;;;21.10;45.20;;;;;;4992454;28;20230;-76
2023/05/28 10:19:51;;;;;;;7.43;3.10;;;21.10;45.20;;;;;;4996719;28;20841;-77
2023/05/28 10:22:17;;;;;;;2.80;2.60;;;21.10;45.00;;;;;;4993329;28;20461;-78
2023/05/28 10:24:44;;;;;;;2.90;2.70;;;21.10;45.10;;;;;;4990812;28;20597;-77
2023/05/28 10:27:15;;;;;;;3.03;2.83;;;21.10;45.10;;;;;;4995024;28;22492;-74
2023/05/28 10:29:46;;;;;;;3.17;2.43;;;21.10;45.10;;;;;;4989173;28;20440;-76
2023/05/28 10:32:17;;;;;;;2.57;2.47;;;21.10;45.10;;;;;;4995004;28;20482;-75
2023/05/28 10:34:43;;;;;;;3.93;3.17;;;21.20;44.90;;;;;;5005438;28;20895;-75
2023/05/28 10:37:10;;;;;;;3.23;2.53;;;21.20;44.60;;;;;;5002973;28;20460;-76
2023/05/28 10:39:45;;;;;;;3.53;3.20;;;21.20;44.30;;;;;;5012610;28;20214;-75
2023/05/28 10:42:16;;;;;;;2.83;2.57;;;21.30;44.20;;;;;;4998395;28;20917;-76
2023/05/28 10:45:00;;;;;;;5.17;2.90;;;21.30;44.20;;;;;;4993408;28;20981;-77
2023/05/28 10:47:40;;;;;;;3.27;2.80;;;21.30;44.10;;;;;;4989042;28;20660;-75
2023/05/28 10:50:08;;;;;;;7.10;3.73;;;21.30;44.00;;;;;;4981746;28;20473;-74
2023/05/28 10:52:35;;;;;;;4.57;4.17;;;21.30;44.20;;;;;;4999697;28;20496;-73
2023/05/28 10:55:06;;;;;;;3.00;2.80;;;21.30;44.20;;;;;;5003686;28;20483;-73
2023/05/28 10:57:43;;;;;;;4.10;3.17;;;21.20;44.40;;;;;;4991101;28;20484;-73
2023/05/28 11:00:15;;;;;;;3.20;3.00;;;21.20;44.50;;;;;;4991249;28;20588;-73
2023/05/28 11:02:47;;;;;;;2.70;2.50;;;21.20;44.50;;;;;;4995544;28;22868;-73
2023/05/28 11:05:12;;;;;;;2.47;2.37;;;21.20;44.70;;;;;;5009028;28;20876;-73
2023/05/28 11:07:40;;;;;;;2.97;2.67;;;21.20;44.70;;;;;;5008817;28;20457;-74
2023/05/28 11:10:08;;;;;;;2.90;2.70;;;21.20;44.70;;;;;;4999700;28;22086;-74
2023/05/28 11:12:39;;;;;;;2.43;2.33;;;21.20;44.80;;;;;;4989793;28;20473;-74
2023/05/28 11:15:06;;;;;;;2.97;2.70;;;21.20;44.80;;;;;;5003061;28;20457;-74
2023/05/28 11:17:43;;;;;;;2.37;2.17;;;21.20;44.90;;;;;;4987835;28;20461;-74
2023/05/28 11:20:16;;;;;;;3.03;2.80;;;21.20;45.00;;;;;;4988919;28;20480;-74
2023/05/28 11:22:41;;;;;;;2.77;2.57;;;21.20;45.00;;;;;;5000157;28;20528;-74
2023/05/28 11:25:09;;;;;;;2.93;2.73;;;21.20;45.00;;;;;;4992001;28;20856;-74
2023/05/28 11:27:36;;;;;;;2.63;2.53;;;21.20;45.10;;;;;;4989916;28;22839;-74
2023/05/28 11:30:24;;;;;;;2.73;2.53;;;21.20;45.10;;;;;;4994336;28;20469;-73
2023/05/28 11:32:50;;;;;;;2.50;2.40;;;21.20;45.00;;;;;;5010057;28;20477;-75
2023/05/28 11:35:17;;;;;;;2.70;2.50;;;21.20;45.10;;;;;;4996719;28;20466;-75
2023/05/28 11:37:44;;;;;;;2.40;2.30;;;21.20;45.10;;;;;;4995913;28;21043;-75
2023/05/28 11:40:12;;;;;;;3.20;3.00;;;21.20;45.20;;;;;;5004704;28;20503;-74
2023/05/28 11:42:40;;;;;;;2.73;2.50;;;21.20;45.20;;;;;;5002871;28;21081;-74
2023/05/28 11:45:07;;;;;;;3.87;2.83;;;21.20;45.20;;;;;;4995814;28;20460;-74
2023/05/28 11:47:33;;;;;;;3.13;2.93;;;21.20;45.20;;;;;;4994660;28;20479;-75
2023/05/28 11:50:06;;;;;;;2.30;2.10;;;21.20;45.20;;;;;;4988644;28;20846;-74
2023/05/28 11:52:31;;;;;;;2.90;2.70;;;21.20;45.20;;;;;;5007049;28;20471;-74
2023/05/28 11:54:58;;;;;;;2.70;2.50;;;21.20;44.80;;;;;;4996358;28;20472;-74
2023/05/28 11:57:33;;;;;;;2.80;2.60;;;21.20;44.50;;;;;;5009583;28;20266;-74
2023/05/28 11:59:58;;;;;;;2.63;2.53;;;21.30;44.50;;;;;;5005251;28;20974;-74
2023/05/28 12:02:24;;;;;;;3.00;2.80;;;21.30;44.20;;;;;;5009669;28;20467;-74
2023/05/28 12:04:57;;;;;;;2.83;2.63;;;21.30;44.00;;;;;;5010730;28;20222;-74
2023/05/28 12:07:28;;;;;;;3.07;2.80;;;21.40;43.90;;;;;;4995986;28;20225;-75
2023/05/28 12:10:04;;;;;;;2.77;2.57;;;21.40;43.70;;;;;;4994209;28;20460;-74
2023/05/28 12:12:32;;;;;;;2.80;2.60;;;21.40;43.50;;;;;;4992859;28;20456;-73
2023/05/28 12:14:58;;;;;;;2.80;2.33;;;21.40;43.60;;;;;;4998218;28;20594;-72
2023/05/28 12:17:24;;;;;;;3.43;2.80;;;21.40;43.70;;;;;;4993023;28;20873;-74
2023/05/28 12:19:50;;;;;;;2.60;2.40;;;21.40;43.80;;;;;;4988536;28;20463;-74
2023/05/28 12:22:18;;;;;;;2.80;2.60;;;21.40;43.90;;;;;;5002384;28;20235;-74
2023/05/28 12:24:49;;;;;;;2.70;2.50;;;21.40;43.90;;;;;;5003772;28;20227;-73
2023/05/28 12:27:14;;;;;;;3.37;2.63;;;21.40;43.90;;;;;;4987420;28;20469;-74
2023/05/28 12:29:40;;;;;;;2.70;2.50;;;21.40;44.00;;;;;;4996949;28;20480;-74
2023/05/28 12:32:05;;;;;;;4.27;2.57;;;21.40;44.10;;;;;;5004012;28;20242;-74
2023/05/28 12:34:31;;;;;;;3.30;3.00;;;21.40;44.10;;;;;;4999308;28;20751;-74
2023/05/28 12:36:56;;;;;;;3.10;2.70;;;21.40;44.20;;;;;;5002830;28;20227;-74
2023/05/28 12:39:22;;;;;;;5.77;2.40;;;21.40;44.20;;;;;;4988034;28;20686;-74
2023/05/28 12:41:48;;;;;;;2.60;2.40;;;21.40;44.20;;;;;;5007505;28;20243;-74
2023/05/28 12:44:13;;;;;;;5.63;3.00;;;21.40;44.30;;;;;;5007412;28;20226;-74
2023/05/28 12:46:39;;;;;;;3.10;2.80;;;21.40;44.30;;;;;;5009309;28;20547;-74